Data for 08/30/2016

Time Sea-Level Adjusted Pressure Absolute Pressure Temperature Relative Humidity Dew Point   
(mb) (inHg) (mb) (inHg) (C) (F) (%) (C) (F)
00:05 1023 30.21 852 25.16 21.4 70.4 36 5.9 42.7
00:10 1023 30.21 852 25.16 21.3 70.3 37 6 42.8
00:15 1023 30.21 852 25.16 21.2 70.1 36 5.9 42.6
00:20 1023 30.21 852 25.16 21.2 70.1 36 5.8 42.4
00:25 1023 30.21 852 25.16 21.2 70.2 36 5.9 42.6
00:30 1023 30.21 852 25.16 21.2 70.2 36 5.7 42.3
00:35 1023 30.21 852 25.16 21.1 70.1 36 5.8 42.5
00:40 1023 30.21 852 25.16 21.2 70.1 36 5.8 42.4
00:45 1023 30.21 852 25.16 21.1 70 36 5.8 42.4
00:50 1023 30.21 852 25.16 21 69.8 36 5.7 42.2
00:55 1023 30.21 852 25.16 21 69.7 37 5.8 42.5
01:00 1023 30.21 852 25.16 20.9 69.7 37 5.7 42.2
01:05 1023 30.21 852 25.16 21 69.8 36 5.7 42.3
01:10 1023 30.21 852 25.16 21 69.7 37 5.7 42.3
01:15 1023 30.21 852 25.16 20.9 69.7 36 5.6 42.1
01:20 1023 30.21 852 25.16 21 69.8 36 5.7 42.3
01:25 1023 30.21 852 25.16 20.9 69.6 37 5.7 42.2
01:30 1023 30.21 852 25.16 20.9 69.6 36 5.6 42.1
01:35 1022 30.18 852 25.16 20.9 69.6 36 5.6 42
01:40 1022 30.18 852 25.16 20.8 69.4 37 5.7 42.2
01:45 1022 30.18 852 25.16 20.6 69.1 38 5.8 42.4
01:50 1022 30.18 852 25.16 20.4 68.7 38 5.8 42.5
01:55 1022 30.18 852 25.16 20.1 68.2 39 5.8 42.4
02:00 1023 30.21 852 25.16 19.9 67.8 40 5.9 42.6
02:05 1023 30.21 852 25.16 19.8 67.6 40 5.8 42.5
02:10 1023 30.21 852 25.16 19.7 67.4 40 5.9 42.7
02:15 1023 30.21 852 25.16 19.5 67.1 40 5.7 42.3
02:20 1023 30.21 852 25.16 19.5 67.1 40 5.8 42.4
02:25 1023 30.21 852 25.16 19.4 66.9 40 5.7 42.2
02:30 1023 30.21 852 25.16 19.4 66.9 40 5.7 42.3
02:35 1023 30.21 852 25.16 19.3 66.7 41 5.9 42.6
02:40 1023 30.21 852 25.16 19.2 66.5 41 5.8 42.5
02:45 1023 30.21 852 25.16 19.1 66.4 42 6 42.8
02:50 1023 30.21 852 25.16 19.1 66.4 42 5.9 42.7
02:55 1023 30.21 852 25.16 19 66.1 42 5.8 42.5
03:00 1023 30.21 852 25.16 18.8 65.9 42 5.8 42.4
03:05 1023 30.21 852 25.16 18.7 65.7 42 5.6 42.1
03:10 1023 30.21 852 25.16 18.4 65.1 43 5.8 42.4
03:15 1023 30.21 852 25.16 18.4 65.1 42 5.5 41.9
03:20 1023 30.21 852 25.16 18.5 65.3 42 5.6 42.1
03:25 1023 30.21 852 25.16 18.4 65.1 43 5.6 42
03:30 1023 30.21 852 25.16 18.3 65 43 5.6 42
03:35 1023 30.21 852 25.16 18.2 64.8 43 5.4 41.8
03:40 1023 30.21 852 25.16 18.2 64.8 42 5.4 41.7
03:45 1023 30.21 852 25.16 18.2 64.7 43 5.5 42
03:50 1023 30.21 852 25.16 17.9 64.2 43 5.3 41.5
03:55 1023 30.21 852 25.16 17.9 64.2 42 4.9 40.8
04:00 1023 30.21 852 25.16 17.9 64.2 43 5.2 41.3
04:05 1023 30.21 852 25.16 17.8 64 43 5.1 41.2
04:10 1023 30.21 852 25.16 17.8 64 43 5 41
04:15 1023 30.21 852 25.16 17.7 63.8 43 5 40.9
04:20 1023 30.21 852 25.16 17.6 63.6 42 4.8 40.6
04:25 1023 30.21 852 25.16 17.6 63.7 41 4.4 39.9
04:30 1023 30.21 852 25.16 17.5 63.5 40 4 39.2
04:35 1023 30.21 852 25.16 17.3 63.1 41 4 39.2
04:40 1023 30.21 852 25.16 17.4 63.3 39 3.5 38.3
04:45 1023 30.21 852 25.16 17.4 63.3 40 3.8 38.8
04:50 1023 30.21 852 25.16 17.1 62.9 39 3.4 38
04:55 1023 30.21 852 25.16 17.2 62.9 39 3.3 38
05:00 1023 30.21 852 25.16 17.3 63.2 38 3.1 37.5
05:05 1023 30.21 852 25.16 17.4 63.2 38 3 37.3
05:10 1023 30.21 852 25.16 17.1 62.9 39 3.1 37.5
05:15 1023 30.21 852 25.16 16.9 62.4 39 2.9 37.2
05:20 1023 30.21 852 25.16 16.8 62.3 38 2.5 36.6
05:25 1023 30.21 852 25.16 16.7 62.1 37 2.3 36.1
05:30 1023 30.21 852 25.16 16.6 62 37 2.2 35.9
05:35 1023 30.21 852 25.16 16.9 62.3 37 2.1 35.8
05:40 1023 30.21 852 25.16 16.7 62 38 2.4 36.4
05:45 1023 30.21 852 25.16 16.4 61.5 39 2.4 36.3
05:50 1023 30.21 852 25.16 16.4 61.4 38 2 35.7
05:55 1023 30.21 852 25.16 16.6 61.8 37 2.1 35.8
06:00 1023 30.21 852 25.16 16.3 61.4 38 2.1 35.9
06:05 1023 30.21 852 25.16 16.3 61.3 37 1.7 35.1
06:10 1023 30.21 852 25.16 16.5 61.8 38 2.4 36.3
06:15 1023 30.21 852 25.16 16.4 61.5 42 3.4 38.2
06:20 1023 30.21 852 25.16 15.8 60.5 39 2 35.5
06:25 1023 30.21 852 25.16 15.5 59.9 38 1.5 34.7
06:30 1023 30.21 853 25.19 15.6 60.1 37 1.2 34.2
06:35 1023 30.21 853 25.19 15.9 60.7 36 1 33.7
06:40 1023 30.21 853 25.19 15.9 60.6 35 0.5 32.9
06:45 1023 30.21 853 25.19 16.3 61.3 33 0.3 32.5
06:50 1024 30.24 853 25.19 16.2 61.1 34 0.5 32.9
06:55 1023 30.21 853 25.19 16.3 61.4 33 -0.1 31.9
07:00 1024 30.24 853 25.19 16.7 62.1 32 0.1 32.2
07:05 1024 30.24 853 25.19 16.9 62.3 32 -0 31.9
07:10 1024 30.24 853 25.19 16.7 62 35 1.4 34.6
07:15 1024 30.24 853 25.19 16.3 61.3 33 0.3 32.5
07:20 1024 30.24 853 25.19 16.2 61.2 33 0.1 32.2
07:25 1024 30.24 853 25.19 16.1 60.9 33 -0.2 31.7
07:30 1024 30.24 853 25.19 16.3 61.4 31 -0.5 31
07:35 1024 30.24 853 25.19 16.4 61.6 32 -0.2 31.6
07:40 1024 30.24 853 25.19 16.3 61.3 33 -0.1 31.9
07:45 1024 30.24 853 25.19 16.1 60.9 37 1.3 34.4
07:50 1024 30.24 853 25.19 16 60.8 32 -0.5 31.1
07:55 1024 30.24 853 25.19 15.9 60.6 33 -0.2 31.6
08:00 1024 30.24 853 25.19 15.3 59.5 37 0.8 33.5
08:05 1024 30.24 853 25.19 15 58.9 36 -0.1 31.9
08:10 1024 30.24 853 25.19 15.6 60.2 30 -1.6 29.2
08:15 1024 30.24 853 25.19 16.4 61.5 30 -1 30.1
08:20 1024 30.24 853 25.19 16.5 61.6 31 -0.7 30.8
08:25 1024 30.24 853 25.19 16.6 61.9 29 -1.2 29.8
08:30 1024 30.24 853 25.19 16.7 62.1 30 -1 30.2
08:35 1024 30.24 853 25.19 16.9 62.4 28 -1.5 29.3
08:40 1024 30.24 853 25.19 17.1 62.8 29 -0.8 30.6
08:45 1024 30.24 853 25.19 16.9 62.4 31 -0.3 31.5
08:50 1024 30.24 853 25.19 17 62.7 32 0.4 32.7
08:55 1024 30.24 853 25.19 17 62.6 34 1.1 34
09:00 1024 30.24 853 25.19 17.1 62.7 35 1.7 35
09:05 1024 30.24 853 25.19 17.2 63 34 1.2 34.2
09:10 1024 30.24 853 25.19 17.5 63.5 39 3.5 38.3
09:15 1024 30.24 853 25.19 17.6 63.8 36 2.6 36.7
09:20 1024 30.24 853 25.19 18 64.3 34 1.9 35.4
09:25 1024 30.24 853 25.19 18.4 65 33 2 35.6
09:30 1024 30.24 853 25.19 18.8 65.8 34 2.7 36.9
09:35 1024 30.24 853 25.19 18.9 66 34 2.6 36.7
09:40 1024 30.24 853 25.19 18.8 65.8 35 3 37.3
09:45 1024 30.24 853 25.19 18.5 65.4 35 3.1 37.6
09:50 1024 30.24 853 25.19 18.7 65.6 36 3.6 38.4
09:55 1024 30.24 853 25.19 19.1 66.4 34 3.1 37.6
10:00 1024 30.24 853 25.19 19.5 67.2 35 4 39.2
10:05 1024 30.24 853 25.19 20.1 68.1 34 3.9 39
10:10 1024 30.24 853 25.19 20.4 68.8 33 3.9 39
10:15 1024 30.24 853 25.19 20.8 69.4 34 4.4 39.9
10:20 1024 30.24 853 25.19 21 69.8 31 3.6 38.4
10:25 1024 30.24 853 25.19 21.3 70.4 28 2.3 36.1
10:30 1024 30.24 853 25.19 22 71.5 28 2.6 36.7
10:35 1024 30.24 853 25.19 22.4 72.2 26 1.9 35.5
10:40 1024 30.24 853 25.19 22.7 72.8 25 1.8 35.3
10:45 1024 30.24 853 25.19 22.7 72.8 26 2.4 36.3
10:50 1024 30.24 853 25.19 22.9 73.2 22 0.1 32.2
10:55 1024 30.24 853 25.19 23 73.3 25 1.8 35.3
11:00 1024 30.24 853 25.19 23 73.4 22 0.3 32.6
11:05 1024 30.24 853 25.19 23.4 74.2 22 0.8 33.4
11:10 1024 30.24 853 25.19 24 75.1 19 -1.2 29.9
11:15 1024 30.24 853 25.19 24.3 75.8 20 0.1 32.1
11:20 1023 30.21 853 25.19 24.8 76.6 19 -0.3 31.4
11:25 1023 30.21 853 25.19 25.2 77.4 19 0.1 32.2
11:30 1023 30.21 853 25.19 25.5 77.8 18 -0.5 31.2
11:35 1023 30.21 853 25.19 25.3 77.6 20 0.7 33.3
11:40 1023 30.21 853 25.19 25.3 77.5 19 0.3 32.5
11:45 1023 30.21 853 25.19 25.5 78 23 2.9 37.3
11:50 1023 30.21 853 25.19 25.1 77.1 27 5.1 41.2
11:55 1023 30.21 853 25.19 24 75.3 27 3.9 39.1
12:00 1023 30.21 853 25.19 24.3 75.7 28 4.7 40.4
12:05 1023 30.21 853 25.19 24.1 75.3 29 5.3 41.5
12:10 1023 30.21 853 25.19 24 75.2 28 4.6 40.3
12:15 1023 30.21 853 25.19 24.3 75.8 28 4.9 40.9
12:20 1023 30.21 852 25.16 24.5 76 26 3.9 39
12:25 1023 30.21 852 25.16 24.9 76.7 25 3.5 38.3
12:30 1023 30.21 852 25.16 24.6 76.2 24 3.1 37.7
12:35 1023 30.21 852 25.16 24.7 76.4 24 2.8 37
12:40 1023 30.21 852 25.16 25.5 77.9 23 3.1 37.6
12:45 1023 30.21 852 25.16 26.3 79.3 23 3.6 38.4
12:50 1023 30.21 852 25.16 26.5 79.7 22 3.4 38
12:55 1023 30.21 852 25.16 26.7 80.1 21 3 37.5
13:00 1023 30.21 852 25.16 26.2 79.2 20 2.1 35.7
13:05 1023 30.21 852 25.16 27.2 81 19 1.7 35.1
13:10 1023 30.21 852 25.16 27.6 81.6 20 2.9 37.3
13:15 1023 30.21 852 25.16 27.6 81.7 20 3.1 37.6
13:20 1023 30.21 852 25.16 27.6 81.7 20 2.8 37
13:25 1023 30.21 852 25.16 28.1 82.5 19 2.8 37.1
13:30 1022 30.18 852 25.16 28 82.3 19 2.6 36.7
13:35 1022 30.18 852 25.16 28 82.3 19 2.4 36.3
13:40 1022 30.18 851 25.13 28.5 83.4 18 2.2 35.9
13:45 1022 30.18 851 25.13 28.9 84.1 17 1.5 34.7
13:50 1022 30.18 851 25.13 28.9 83.9 17 1.6 34.9
13:55 1022 30.18 851 25.13 29.2 84.6 16 1 33.8
14:00 1022 30.18 851 25.13 29.9 85.7 15 1.2 34.2
14:05 1022 30.18 851 25.13 30.5 86.9 15 1.4 34.5
14:10 1022 30.18 851 25.13 30.6 87 17 3.4 38
14:15 1022 30.18 851 25.13 30.5 86.9 15 1.7 35.1
14:20 1022 30.18 851 25.13 30.9 87.6 15 1.4 34.5
14:25 1022 30.18 851 25.13 31.6 88.8 14 1.7 35
14:30 1022 30.18 851 25.13 31.5 88.6 14 1.2 34.2
14:35 1022 30.18 851 25.13 31.5 88.7 15 1.7 35
14:40 1022 30.18 851 25.13 30.7 87.3 14 0 32.1
14:45 1021 30.15 851 25.13 30.4 86.7 14 -0.2 31.6
14:50 1021 30.15 851 25.13 31.7 89 13 0.1 32.1
14:55 1021 30.15 851 25.13 32.1 89.7 12 -0.2 31.6
15:00 1021 30.15 851 25.13 31.7 89.1 13 0 32
15:05 1021 30.15 850 25.1 31.6 88.9 13 0 32.1
15:10 1021 30.15 850 25.1 32.2 89.9 13 0.4 32.7
15:15 1021 30.15 850 25.1 32 89.7 10 -2.8 27
15:20 1021 30.15 850 25.1 30.9 87.7 11 -3.2 26.3
15:25 1021 30.15 850 25.1 31 87.8 11 -2.9 26.8
15:30 1021 30.15 850 25.1 32 89.7 10 -2.8 26.9
15:35 1021 30.15 850 25.1 32 89.6 10 -2.7 27.1
15:40 1021 30.15 850 25.1 31.1 88.1 11 -3 26.7
15:45 1021 30.15 850 25.1 31.2 88.2 11 -2.8 26.9
15:50 1021 30.15 850 25.1 32 89.6 10 -2.8 27
15:55 1021 30.15 850 25.1 32 89.7 10 -3.4 25.9
16:00 1021 30.15 850 25.1 32.4 90.4 11 -2 28.3
16:05 1021 30.15 850 25.1 31.7 89.1 11 -2.3 27.9
16:10 1021 30.15 850 25.1 31.8 89.3 10 -3.4 25.8
16:15 1021 30.15 850 25.1 31.9 89.4 10 -3 26.6
16:20 1020 30.12 850 25.1 32.6 90.6 10 -2.9 26.8
16:25 1020 30.12 850 25.1 32.5 90.4 10 -2.7 27.2
16:30 1020 30.12 850 25.1 32.3 90.1 10 -3.5 25.7
16:35 1020 30.12 850 25.1 31.6 88.9 10 -3.8 25.2
16:40 1020 30.12 849 25.07 31.7 89 10 -3 26.6
16:45 1020 30.12 849 25.07 31.7 89 10 -3.9 24.9
16:50 1020 30.12 849 25.07 31.7 89.1 10 -3.2 26.3
16:55 1020 30.12 849 25.07 31.1 87.9 11 -2.6 27.3
17:00 1020 30.12 849 25.07 30.9 87.7 11 -3.1 26.4
17:05 1020 30.12 849 25.07 30.9 87.6 11 -3.2 26.3
17:10 1020 30.12 849 25.07 30.6 87.1 12 -1.8 28.8
17:15 1020 30.12 849 25.07 30 86 14 -0.1 31.9
17:20 1020 30.12 849 25.07 29.4 85 15 0.1 32.2
17:25 1020 30.12 849 25.07 29.2 84.5 14 -0.5 31.1
17:30 1020 30.12 849 25.07 29.1 84.4 14 -0.5 31
17:35 1020 30.12 849 25.07 29.1 84.4 14 -0.5 31.2
17:40 1020 30.12 849 25.07 29 84.2 14 -0.5 31.1
17:45 1020 30.12 849 25.07 28.8 83.9 14 -0.8 30.5
17:50 1020 30.12 850 25.1 28.7 83.7 14 -1 30.2
17:55 1020 30.12 849 25.07 28.7 83.6 14 -1.3 29.7
18:00 1020 30.12 849 25.07 28.7 83.6 14 -1.4 29.6
18:05 1020 30.12 849 25.07 28.6 83.5 14 -1.3 29.7
18:10 1020 30.12 849 25.07 28.5 83.3 15 -0.6 30.8
18:15 1020 30.12 849 25.07 28.3 82.9 15 -0.4 31.2
18:20 1020 30.12 849 25.07 28.2 82.7 15 -0.3 31.5
18:25 1020 30.12 849 25.07 28.1 82.5 16 0.2 32.4
18:30 1020 30.12 849 25.07 28 82.3 17 0.6 33
18:35 1020 30.12 849 25.07 27.8 82.1 17 0.5 33
18:40 1020 30.12 849 25.07 27.7 81.9 17 0.4 32.7
18:45 1020 30.12 849 25.07 27.7 81.9 17 0.4 32.7
18:50 1020 30.12 849 25.07 27.7 81.8 16 -0.4 31.2
18:55 1020 30.12 849 25.07 27.6 81.7 16 -0.2 31.6
19:00 1020 30.12 849 25.07 27.5 81.6 16 -0.5 31.2
19:05 1020 30.12 849 25.07 27.4 81.3 17 0.2 32.4
19:10 1020 30.12 849 25.07 27.2 80.9 16 -0.1 31.8
19:15 1020 30.12 849 25.07 27.1 80.8 17 -0.1 31.9
19:20 1020 30.12 849 25.07 27 80.6 17 0.1 32.2
19:25 1020 30.12 849 25.07 26.9 80.3 17 -0.1 31.9
19:30 1020 30.12 849 25.07 26.8 80.2 17 0.2 32.3
19:35 1020 30.12 849 25.07 26.6 79.9 17 0.2 32.3
19:40 1020 30.12 849 25.07 26.5 79.7 18 0.3 32.6
19:45 1020 30.12 849 25.07 26.4 79.4 18 0.1 32.2
19:50 1020 30.12 849 25.07 26.3 79.3 18 0 32.1
19:55 1020 30.12 849 25.07 26.2 79.1 18 -0.1 31.8
20:00 1020 30.12 849 25.07 26.1 79.1 18 -0.1 31.8
20:05 1020 30.12 849 25.07 26.1 78.9 17 -0.6 30.9
20:10 1020 30.12 849 25.07 26.2 79.1 17 -0.8 30.5
20:15 1020 30.12 849 25.07 26.1 79.1 17 -0.6 30.9
20:20 1020 30.12 849 25.07 26.1 79 16 -1 30.2
20:25 1020 30.12 849 25.07 26.1 78.9 17 -1 30.2
20:30 1020 30.12 849 25.07 26 78.8 16 -1.6 29.1
20:35 1020 30.12 849 25.07 26.1 79 16 -1.7 28.9
20:40 1020 30.12 849 25.07 26.2 79.1 16 -1.7 28.9
20:45 1020 30.12 849 25.07 26.1 78.9 16 -1.2 29.8
20:50 1020 30.12 849 25.07 26 78.8 16 -1.6 29
20:55 1020 30.12 849 25.07 26 78.9 16 -1.8 28.7
21:00 1020 30.12 849 25.07 26 78.7 16 -1.2 29.9
21:05 1020 30.12 849 25.07 25.9 78.7 16 -1.7 29
21:10 1020 30.12 849 25.07 25.9 78.6 16 -1.3 29.6
21:15 1020 30.12 849 25.07 25.8 78.4 17 -1.1 30
21:20 1020 30.12 849 25.07 25.6 78.1 17 -0.9 30.3
21:25 1020 30.12 849 25.07 25.4 77.7 17 -1.1 30
21:30 1020 30.12 849 25.07 25.3 77.6 17 -0.9 30.4
21:35 1020 30.12 849 25.07 25.2 77.4 18 -0.7 30.7
21:40 1020 30.12 849 25.07 25.1 77.2 18 -0.6 30.9
21:45 1020 30.12 849 25.07 25.1 77.1 18 -0.6 30.9
21:50 1020 30.12 849 25.07 25.1 77.2 19 -0.2 31.6
21:55 1020 30.12 849 25.07 25.1 77.3 19 -0 31.9
22:00 1020 30.12 849 25.07 25.3 77.5 19 0.1 32.2
22:05 1020 30.12 849 25.07 25.1 77.1 19 0.4 32.6
22:10 1020 30.12 849 25.07 24.9 76.8 20 0.5 33
22:15 1020 30.12 849 25.07 24.8 76.6 20 0.5 32.9
22:20 1020 30.12 849 25.07 24.8 76.6 20 0.6 33.1
22:25 1020 30.12 849 25.07 24.8 76.6 20 0.6 33.1
22:30 1020 30.12 849 25.07 24.7 76.5 20 0.7 33.2
22:35 1020 30.12 849 25.07 24.7 76.5 20 0.7 33.3
22:40 1020 30.12 849 25.07 24.7 76.4 21 0.9 33.6
22:45 1020 30.12 849 25.07 24.6 76.2 21 1 33.8
22:50 1020 30.12 849 25.07 24.5 76.1 21 1.2 34.2
22:55 1020 30.12 849 25.07 24.5 76.1 21 1.2 34.1
23:00 1020 30.12 849 25.07 24.5 76 22 1.4 34.5
23:05 1020 30.12 849 25.07 24.4 76 22 1.6 34.8
23:10 1020 30.12 849 25.07 24.4 75.9 22 1.7 35
23:15 1020 30.12 849 25.07 24.3 75.8 23 1.9 35.4
23:20 1020 30.12 849 25.07 24.3 75.7 23 2.1 35.7
23:25 1020 30.12 849 25.07 24.2 75.5 23 2.1 35.9
23:30 1020 30.12 849 25.07 24.2 75.5 23 2.1 35.9
23:35 1020 30.12 849 25.07 24.2 75.5 24 2.3 36.1
23:40 1020 30.12 849 25.07 24.1 75.4 24 2.4 36.4
23:45 1020 30.12 849 25.07 24 75.1 24 2.4 36.4
23:50 1020 30.12 849 25.07 23.9 75.1 24 2.4 36.4
23:55 1020 30.12 849 25.07 24 75.2 24 2.4 36.3
24:00 1020 30.12 849 25.07 24.1 75.4 24 2.7 36.9